Time;durP1;ratioP1;P1;durP2;ratioP2;P2;SDS_P1;SDS_P2;PMS_P1;PMS_P2;Temp;Humidity;BMP_temperature;BMP_pressure;BME280_temperature;BME280_humidity;BME280_pressure;Samples;Min_cycle;Max_cycle;Signal;HPM_P1;HPM_P2
2022/06/12 00:00:25;;;;;;;2.22;1.80;;;16.40;86.30;;;;;;5051070;28;20033;-82
2022/06/12 00:02:51;;;;;;;1.60;1.50;;;16.40;86.70;;;;;;5032378;28;20075;-83
2022/06/12 00:05:19;;;;;;;2.72;2.10;;;16.40;86.80;;;;;;5032606;28;20052;-81
2022/06/12 00:07:44;;;;;;;2.60;1.77;;;16.30;87.10;;;;;;5031980;28;20026;-81
2022/06/12 00:10:11;;;;;;;2.20;2.00;;;16.30;87.30;;;;;;5049965;28;20040;-83
2022/06/12 00:12:38;;;;;;;2.50;2.05;;;16.30;87.60;;;;;;5050718;28;20390;-82
2022/06/12 00:15:05;;;;;;;1.92;1.83;;;16.20;87.90;;;;;;5032434;28;20045;-81
2022/06/12 00:17:31;;;;;;;1.75;1.65;;;16.20;88.20;;;;;;5050158;28;20060;-81
2022/06/12 00:19:57;;;;;;;2.05;1.95;;;16.20;88.60;;;;;;5049299;28;20033;-83
2022/06/12 00:22:23;;;;;;;2.20;2.00;;;16.10;88.80;;;;;;5028385;28;20118;-83
2022/06/12 00:24:49;;;;;;;1.80;1.70;;;16.10;89.40;;;;;;5023086;28;20037;-84
2022/06/12 00:27:15;;;;;;;2.13;2.00;;;16.10;89.40;;;;;;5022051;28;20431;-84
2022/06/12 00:29:41;;;;;;;2.92;2.10;;;16.10;89.70;;;;;;5040201;28;20044;-83
2022/06/12 00:32:13;;;;;;;3.17;2.22;;;16.00;90.00;;;;;;5028435;28;20113;-80
2022/06/12 00:34:48;;;;;;;2.47;2.28;;;16.00;90.10;;;;;;5056285;28;20178;-79
2022/06/12 00:37:15;;;;;;;2.72;2.53;;;15.90;90.30;;;;;;5043803;28;20108;-83
2022/06/12 00:39:41;;;;;;;2.30;2.10;;;15.90;90.50;;;;;;5039491;28;20026;-84
2022/06/12 00:42:18;;;;;;;2.90;2.00;;;15.90;90.70;;;;;;5046963;28;20142;-83
2022/06/12 00:44:44;;;;;;;2.28;2.08;;;15.90;90.80;;;;;;5040849;28;20026;-83
2022/06/12 00:47:14;;;;;;;2.80;2.40;;;15.80;91.00;;;;;;5048982;28;20088;-82
2022/06/12 00:49:44;;;;;;;2.60;2.38;;;15.80;91.10;;;;;;5037311;28;20409;-82
2022/06/12 00:52:21;;;;;;;2.70;2.50;;;15.80;91.20;;;;;;5038198;28;20024;-81
2022/06/12 00:54:52;;;;;;;2.45;2.25;;;15.90;91.30;;;;;;5050073;28;20044;-81
2022/06/12 00:57:21;;;;;;;2.55;2.33;;;15.90;91.40;;;;;;5037126;28;20081;-82
2022/06/12 00:59:54;;;;;;;2.60;2.40;;;15.90;91.50;;;;;;5018287;28;20018;-81
2022/06/12 01:02:24;;;;;;;2.63;2.42;;;15.80;91.60;;;;;;5018572;28;20116;-81
2022/06/12 01:07:34;;;;;;;2.40;2.08;;;15.80;91.80;;;;;;4996725;28;20050;-79
2022/06/12 01:10:02;;;;;;;3.05;2.55;;;15.80;91.90;;;;;;5005757;28;20168;-80
2022/06/12 01:12:44;;;;;;;2.72;2.53;;;15.80;91.80;;;;;;4997544;28;20030;-81
2022/06/12 01:15:15;;;;;;;2.78;2.58;;;15.80;91.80;;;;;;4996828;28;20128;-80
2022/06/12 01:17:43;;;;;;;2.50;2.30;;;15.80;91.90;;;;;;4997051;28;20030;-80
2022/06/12 01:20:13;;;;;;;2.97;2.67;;;15.70;92.00;;;;;;4998776;28;20023;-81
2022/06/12 01:23:08;;;;;;;2.78;2.53;;;15.70;92.20;;;;;;5000925;28;20108;-81
2022/06/12 01:25:47;;;;;;;2.30;2.17;;;15.70;92.30;;;;;;4983530;28;20053;-80
2022/06/12 01:28:37;;;;;;;2.28;2.17;;;15.70;92.30;;;;;;5000885;28;20038;-80
2022/06/12 01:31:27;;;;;;;2.45;2.25;;;15.70;92.30;;;;;;5001425;28;20081;-80
2022/06/12 01:34:26;;;;;;;2.45;2.25;;;15.70;92.40;;;;;;4983444;28;20508;-79
2022/06/12 01:37:16;;;;;;;2.20;2.08;;;15.60;92.50;;;;;;5001704;28;20113;-81
2022/06/12 01:39:50;;;;;;;2.85;2.40;;;15.60;92.50;;;;;;5018511;28;20025;-79
2022/06/12 01:42:19;;;;;;;2.50;2.30;;;15.60;92.60;;;;;;4991428;28;20034;-79
2022/06/12 01:44:57;;;;;;;2.38;2.17;;;15.60;92.60;;;;;;4991967;28;20032;-78
2022/06/12 01:47:37;;;;;;;2.78;2.50;;;15.50;92.70;;;;;;5007686;28;20454;-80
2022/06/12 01:50:32;;;;;;;2.45;2.25;;;15.50;92.80;;;;;;5012673;28;20026;-80
2022/06/12 01:53:13;;;;;;;2.33;2.13;;;15.50;93.00;;;;;;4984559;28;20030;-79
2022/06/12 01:55:46;;;;;;;3.03;2.20;;;15.40;93.00;;;;;;5001655;28;20046;-80
2022/06/12 01:58:35;;;;;;;2.03;1.90;;;15.40;93.10;;;;;;4997887;28;20080;-79
2022/06/12 02:01:24;;;;;;;2.13;1.92;;;15.40;93.20;;;;;;4999562;28;20478;-80
2022/06/12 02:04:07;;;;;;;2.83;2.13;;;15.40;93.30;;;;;;4999444;28;20022;-79
2022/06/12 02:06:38;;;;;;;2.40;2.20;;;15.30;93.40;;;;;;4999109;28;20114;-80
2022/06/12 02:09:20;;;;;;;2.15;2.05;;;15.30;93.50;;;;;;5006871;28;20022;-80
2022/06/12 02:14:44;;;;;;;2.87;2.63;;;15.30;93.60;;;;;;5024090;28;20033;-82
2022/06/12 02:17:16;;;;;;;3.13;2.53;;;15.30;93.80;;;;;;5021079;28;20261;-79
2022/06/12 02:19:46;;;;;;;5.03;2.53;;;15.30;93.90;;;;;;5001106;28;20026;-80
2022/06/12 02:22:17;;;;;;;4.22;2.97;;;15.30;94.10;;;;;;5000956;28;20045;-78
2022/06/12 02:24:57;;;;;;;2.92;2.17;;;15.20;94.20;;;;;;5000803;28;20026;-80
2022/06/12 02:27:40;;;;;;;2.53;2.33;;;15.20;94.40;;;;;;4982399;28;20031;-80
2022/06/12 02:30:29;;;;;;;3.05;2.55;;;15.10;94.60;;;;;;4980169;28;20475;-79
2022/06/12 02:33:15;;;;;;;2.97;2.72;;;15.10;94.80;;;;;;4978993;28;20507;-80
2022/06/12 02:35:59;;;;;;;2.75;2.55;;;15.00;95.00;;;;;;4979230;28;20416;-81
2022/06/12 02:38:33;;;;;;;4.63;2.65;;;15.00;95.30;;;;;;4982319;28;20034;-80
2022/06/12 02:41:18;;;;;;;2.88;2.58;;;14.90;95.40;;;;;;5006090;28;20482;-81
2022/06/12 02:43:46;;;;;;;2.30;2.20;;;14.90;95.50;;;;;;4999902;28;20182;-81
2022/06/12 02:46:18;;;;;;;3.40;3.10;;;14.90;95.50;;;;;;4999494;28;20447;-80
2022/06/12 02:48:45;;;;;;;2.80;2.60;;;14.90;95.60;;;;;;4998817;28;20435;-80
2022/06/12 02:51:17;;;;;;;2.35;2.00;;;14.80;95.70;;;;;;4981762;28;20062;-80
2022/06/12 02:54:48;;;;;;;2.20;2.10;;;14.90;95.70;;;;;;4999231;28;20031;-79
2022/06/12 02:57:46;;;;;;;2.95;2.70;;;14.90;95.70;;;;;;4956220;28;20035;-79
2022/06/12 03:00:34;;;;;;;2.63;2.38;;;14.80;95.80;;;;;;4966798;28;20039;-81
2022/06/12 03:03:11;;;;;;;2.50;2.00;;;14.90;95.80;;;;;;4979216;28;20031;-80
2022/06/12 03:05:41;;;;;;;2.88;1.85;;;14.90;95.70;;;;;;4979677;28;20062;-80
2022/06/12 03:08:16;;;;;;;2.60;2.40;;;14.90;95.70;;;;;;4998665;28;20032;-79
2022/06/12 03:10:55;;;;;;;2.50;2.30;;;14.90;95.60;;;;;;5013604;28;20025;-80
2022/06/12 03:13:25;;;;;;;2.33;2.15;;;14.90;95.50;;;;;;5017652;28;20520;-80
2022/06/12 03:15:58;;;;;;;2.15;2.03;;;14.90;95.40;;;;;;5018968;28;20018;-81
2022/06/12 03:18:29;;;;;;;2.60;2.40;;;14.90;95.70;;;;;;5010085;28;20038;-80
2022/06/12 03:21:06;;;;;;;2.20;2.00;;;14.90;95.40;;;;;;4984246;28;20030;-80
2022/06/12 03:23:47;;;;;;;2.50;2.30;;;14.90;95.30;;;;;;5003333;28;20030;-79
2022/06/12 03:26:30;;;;;;;2.80;2.50;;;15.00;95.20;;;;;;4980107;28;20475;-79
2022/06/12 03:29:19;;;;;;;3.35;1.98;;;15.00;95.10;;;;;;4998309;28;20054;-80
2022/06/12 03:31:50;;;;;;;1.90;1.80;;;15.00;95.00;;;;;;4975326;28;20038;-78
2022/06/12 03:34:29;;;;;;;1.80;1.70;;;15.00;95.00;;;;;;5008532;28;20027;-78
2022/06/12 03:37:19;;;;;;;2.33;2.13;;;15.00;95.00;;;;;;5006614;28;20022;-80
2022/06/12 03:39:52;;;;;;;2.20;2.05;;;15.00;95.20;;;;;;5006477;28;20031;-80
2022/06/12 03:42:29;;;;;;;2.10;2.00;;;14.90;95.00;;;;;;4998637;28;20035;-79
2022/06/12 03:45:28;;;;;;;2.00;1.75;;;15.00;95.00;;;;;;4998060;28;20027;-85
2022/06/12 03:48:02;;;;;;;2.42;1.88;;;15.00;94.90;;;;;;4984846;28;20050;-79
2022/06/12 03:50:39;;;;;;;2.35;2.15;;;15.00;94.90;;;;;;4979977;28;20033;-81
2022/06/12 03:53:29;;;;;;;1.85;1.75;;;15.10;94.90;;;;;;5000774;28;20026;-79
2022/06/12 03:59:17;;;;;;;2.00;1.90;;;15.10;94.70;;;;;;4998584;28;20041;-81
2022/06/12 04:01:46;;;;;;;2.50;2.20;;;15.20;94.60;;;;;;4998815;28;20034;-81
2022/06/12 04:04:15;;;;;;;3.20;2.25;;;15.20;94.50;;;;;;4997689;28;20022;-81
2022/06/12 04:06:41;;;;;;;2.65;2.45;;;15.20;94.50;;;;;;4997442;28;20085;-81
2022/06/12 04:09:17;;;;;;;1.92;1.83;;;15.20;94.50;;;;;;5005014;28;20014;-79
2022/06/12 04:11:54;;;;;;;1.85;1.75;;;15.30;94.40;;;;;;5019879;28;20026;-80
2022/06/12 04:14:25;;;;;;;2.88;1.90;;;15.30;94.30;;;;;;5018449;28;20025;-80
2022/06/12 04:16:54;;;;;;;2.50;2.30;;;15.40;94.10;;;;;;5007514;28;20086;-79
2022/06/12 04:19:23;;;;;;;1.90;1.80;;;15.40;93.90;;;;;;4997554;28;20037;-80
2022/06/12 04:21:54;;;;;;;2.05;1.95;;;15.50;93.90;;;;;;4998023;28;20080;-80
2022/06/12 04:24:34;;;;;;;1.80;1.70;;;15.60;93.70;;;;;;4997925;28;20117;-80
2022/06/12 04:27:11;;;;;;;2.08;1.90;;;15.60;93.60;;;;;;4997400;28;20445;-80
2022/06/12 04:29:47;;;;;;;1.80;1.70;;;15.70;93.40;;;;;;4999178;28;20113;-81
2022/06/12 04:32:13;;;;;;;1.98;1.70;;;15.80;93.20;;;;;;4999795;28;20034;-80
2022/06/12 04:34:41;;;;;;;1.70;1.60;;;16.00;92.70;;;;;;4997564;28;20022;-81
2022/06/12 04:37:10;;;;;;;1.77;1.67;;;16.20;92.30;;;;;;4980492;28;20086;-81
2022/06/12 04:39:36;;;;;;;2.15;1.92;;;16.20;92.10;;;;;;5007822;28;20033;-80
2022/06/12 04:42:03;;;;;;;2.60;2.08;;;16.20;91.90;;;;;;5022832;28;20078;-79
2022/06/12 04:44:30;;;;;;;2.53;2.05;;;16.30;91.90;;;;;;5012479;28;20121;-79
2022/06/12 04:46:58;;;;;;;3.35;2.10;;;16.30;91.60;;;;;;5030068;28;20017;-80
2022/06/12 04:49:28;;;;;;;1.88;1.77;;;16.30;91.50;;;;;;4992569;28;20027;-79
2022/06/12 04:51:57;;;;;;;2.63;2.42;;;16.40;91.40;;;;;;4989746;28;20026;-79
2022/06/12 04:54:26;;;;;;;1.70;1.60;;;16.50;91.10;;;;;;5005434;28;20053;-80
2022/06/12 04:56:53;;;;;;;3.35;2.03;;;16.60;90.80;;;;;;5004218;28;20030;-79
2022/06/12 04:59:20;;;;;;;2.03;1.92;;;16.70;90.60;;;;;;4999527;28;20117;-80
2022/06/12 05:01:48;;;;;;;3.17;2.00;;;16.70;90.50;;;;;;5002157;28;20093;-80
2022/06/12 05:04:15;;;;;;;1.80;1.70;;;16.80;90.30;;;;;;5007544;28;20118;-79
2022/06/12 05:06:41;;;;;;;1.80;1.70;;;17.10;90.30;;;;;;5009658;28;20049;-80
2022/06/12 05:09:09;;;;;;;1.60;1.50;;;19.20;88.30;;;;;;5020357;28;20019;-82
2022/06/12 05:11:35;;;;;;;1.63;1.52;;;22.70;77.40;;;;;;5016639;28;20019;-82
2022/06/12 05:14:01;;;;;;;1.35;1.25;;;26.50;63.30;;;;;;5012080;28;20108;-80
2022/06/12 05:16:33;;;;;;;1.23;1.13;;;29.30;54.40;;;;;;5011147;28;20026;-81
2022/06/12 05:19:00;;;;;;;2.38;1.00;;;31.40;49.20;;;;;;5012394;28;20026;-80
2022/06/12 05:21:28;;;;;;;1.13;1.10;;;32.90;45.50;;;;;;5012844;28;20023;-80
2022/06/12 05:23:57;;;;;;;1.30;1.20;;;33.80;43.40;;;;;;5012080;28;20026;-81
2022/06/12 05:26:24;;;;;;;1.33;1.30;;;34.50;41.30;;;;;;5011232;28;20062;-80
2022/06/12 05:28:50;;;;;;;1.25;1.15;;;34.80;40.60;;;;;;5011783;28;20006;-80
2022/06/12 05:31:16;;;;;;;1.20;1.20;;;35.30;39.70;;;;;;5012450;28;20022;-81
2022/06/12 05:33:46;;;;;;;1.30;1.17;;;35.70;39.10;;;;;;5011873;28;20019;-82
2022/06/12 05:36:15;;;;;;;1.17;1.17;;;35.90;38.60;;;;;;5006107;28;20018;-81
2022/06/12 05:38:44;;;;;;;0.90;0.90;;;36.50;38.00;;;;;;5013338;28;20045;-81
2022/06/12 05:41:10;;;;;;;1.20;1.10;;;37.00;37.40;;;;;;5006307;28;20025;-81
2022/06/12 05:43:40;;;;;;;1.13;1.13;;;37.50;36.70;;;;;;5005208;28;20046;-80
2022/06/12 05:46:07;;;;;;;1.10;1.10;;;37.60;36.40;;;;;;5021196;28;20117;-81
2022/06/12 05:48:34;;;;;;;1.55;1.45;;;37.40;36.30;;;;;;4987585;28;20039;-81
2022/06/12 05:51:01;;;;;;;1.40;1.30;;;37.30;35.90;;;;;;4983984;28;20034;-81
2022/06/12 05:53:29;;;;;;;1.13;1.13;;;37.50;36.20;;;;;;5000791;28;20042;-81
2022/06/12 05:55:56;;;;;;;1.10;1.10;;;37.90;36.00;;;;;;5000587;28;20026;-81
2022/06/12 05:58:24;;;;;;;1.30;1.30;;;38.10;35.90;;;;;;5000573;28;20026;-80
2022/06/12 06:00:51;;;;;;;1.30;1.30;;;38.00;35.50;;;;;;5001096;28;20041;-80
2022/06/12 06:03:17;;;;;;;2.22;1.30;;;37.80;35.40;;;;;;5002463;28;20019;-81
2022/06/12 06:05:45;;;;;;;1.60;1.50;;;37.60;35.40;;;;;;5000709;28;20138;-80
2022/06/12 06:08:11;;;;;;;1.30;1.30;;;37.70;35.20;;;;;;5003587;28;20030;-81
2022/06/12 06:10:38;;;;;;;1.23;1.23;;;37.70;35.40;;;;;;5014312;28;20059;-81
2022/06/12 06:13:04;;;;;;;1.08;1.08;;;37.90;35.40;;;;;;5004610;28;20100;-81
2022/06/12 06:15:30;;;;;;;1.48;1.48;;;38.10;35.30;;;;;;5005258;28;20028;-82
2022/06/12 06:18:00;;;;;;;1.27;1.27;;;38.70;34.70;;;;;;5002188;28;20513;-82
2022/06/12 06:20:32;;;;;;;1.55;1.30;;;39.00;34.60;;;;;;4984791;28;20027;-81
2022/06/12 06:22:58;;;;;;;1.08;1.08;;;39.00;34.40;;;;;;4986054;28;20036;-81
2022/06/12 06:25:27;;;;;;;1.30;1.30;;;39.40;34.10;;;;;;5002814;28;20085;-82
2022/06/12 06:27:53;;;;;;;1.20;1.20;;;39.60;33.50;;;;;;5003687;28;20037;-82
2022/06/12 06:30:21;;;;;;;1.20;1.20;;;39.40;34.20;;;;;;5000607;28;20026;-82
2022/06/12 06:32:46;;;;;;;1.60;1.50;;;39.40;33.80;;;;;;5000698;28;20057;-81
2022/06/12 06:35:13;;;;;;;2.85;1.60;;;39.50;33.70;;;;;;5003651;28;20022;-82
2022/06/12 06:37:40;;;;;;;1.50;1.45;;;39.40;33.00;;;;;;5004712;28;20045;-82
2022/06/12 06:40:08;;;;;;;1.17;1.17;;;39.10;33.80;;;;;;5013855;28;20026;-81
2022/06/12 06:42:34;;;;;;;1.40;1.30;;;39.40;33.80;;;;;;5001685;28;20034;-82
2022/06/12 06:47:45;;;;;;;1.25;1.25;;;39.70;33.60;;;;;;4996547;28;20081;-80
2022/06/12 06:50:13;;;;;;;1.20;1.20;;;39.50;33.40;;;;;;4981992;28;20018;-81
2022/06/12 06:52:39;;;;;;;1.40;1.30;;;39.80;33.30;;;;;;4997034;28;20106;-81
2022/06/12 06:55:06;;;;;;;1.45;1.02;;;40.00;33.60;;;;;;4980373;28;20050;-81
2022/06/12 06:57:35;;;;;;;1.30;1.30;;;39.70;33.20;;;;;;4997336;28;20109;-80
2022/06/12 07:00:02;;;;;;;1.38;1.38;;;39.60;33.20;;;;;;4996489;28;20130;-82
2022/06/12 07:02:28;;;;;;;2.17;1.25;;;39.70;33.10;;;;;;4999597;28;20030;-79
2022/06/12 07:07:34;;;;;;;1.52;1.42;;;39.80;33.30;;;;;;5019396;28;20064;-78
2022/06/12 07:10:01;;;;;;;1.30;1.30;;;39.60;33.00;;;;;;5027709;28;20047;-80
2022/06/12 07:12:27;;;;;;;1.00;1.00;;;39.40;33.20;;;;;;5038210;28;20026;-79
2022/06/12 07:14:52;;;;;;;1.60;1.50;;;39.40;33.40;;;;;;5038406;28;20032;-78
2022/06/12 07:17:18;;;;;;;1.23;1.23;;;39.50;32.90;;;;;;5046142;28;20034;-79
2022/06/12 07:19:44;;;;;;;1.58;1.58;;;38.80;32.90;;;;;;5038659;28;20037;-78
2022/06/12 07:22:10;;;;;;;1.48;1.38;;;35.90;34.10;;;;;;5020610;28;20364;-78
2022/06/12 07:24:36;;;;;;;1.50;1.40;;;32.60;37.40;;;;;;5014079;28;20080;-78
2022/06/12 07:27:03;;;;;;;2.25;1.40;;;29.90;40.80;;;;;;5014935;28;20451;-77
2022/06/12 07:29:29;;;;;;;1.38;1.27;;;27.90;44.00;;;;;;5015857;28;20069;-78
2022/06/12 07:31:54;;;;;;;1.05;1.05;;;26.40;46.50;;;;;;5017275;28;20026;-77
2022/06/12 07:34:20;;;;;;;1.63;1.52;;;25.40;48.60;;;;;;5014134;28;20026;-77
2022/06/12 07:36:49;;;;;;;1.25;1.20;;;24.80;50.50;;;;;;5015128;28;20034;-76
2022/06/12 07:39:25;;;;;;;1.25;1.15;;;24.30;51.50;;;;;;5024486;28;20408;-76
2022/06/12 07:41:52;;;;;;;1.55;1.45;;;24.00;52.00;;;;;;5016807;28;20026;-77
2022/06/12 07:44:21;;;;;;;1.35;1.25;;;23.80;53.00;;;;;;5035912;28;20386;-77
2022/06/12 07:46:48;;;;;;;1.58;1.48;;;23.70;53.50;;;;;;5026510;28;20030;-79
2022/06/12 07:49:16;;;;;;;1.60;1.38;;;23.60;53.30;;;;;;5020374;28;20022;-79
2022/06/12 07:51:41;;;;;;;1.35;1.25;;;23.60;53.80;;;;;;5021442;28;20041;-78
2022/06/12 07:54:07;;;;;;;1.30;1.30;;;23.50;53.20;;;;;;5003842;28;20032;-77
2022/06/12 07:56:33;;;;;;;1.50;1.40;;;23.50;53.50;;;;;;5026334;28;20505;-78
2022/06/12 07:58:59;;;;;;;1.90;1.40;;;23.50;53.80;;;;;;5008059;28;20057;-78
2022/06/12 08:01:27;;;;;;;1.38;1.27;;;23.50;54.00;;;;;;5020246;28;20079;-78
2022/06/12 08:03:54;;;;;;;2.97;1.33;;;23.50;54.10;;;;;;5016080;28;20026;-78
2022/06/12 08:06:21;;;;;;;1.63;1.50;;;23.50;53.30;;;;;;5016601;28;20044;-78
2022/06/12 08:08:46;;;;;;;1.30;1.20;;;23.60;53.20;;;;;;5024800;28;20080;-78
2022/06/12 08:11:13;;;;;;;1.30;1.20;;;23.60;52.60;;;;;;5013964;28;20441;-78
2022/06/12 08:13:39;;;;;;;1.52;1.40;;;23.70;51.80;;;;;;5035584;28;20489;-77
2022/06/12 08:16:05;;;;;;;1.23;1.13;;;23.70;52.60;;;;;;5034011;28;20494;-78
2022/06/12 08:18:31;;;;;;;1.70;1.40;;;23.80;52.60;;;;;;5031351;28;20064;-78
2022/06/12 08:21:06;;;;;;;1.20;1.10;;;23.80;52.50;;;;;;5016438;28;20030;-78
2022/06/12 08:23:40;;;;;;;2.53;1.30;;;23.90;52.30;;;;;;5017845;28;20053;-77
2022/06/12 08:26:12;;;;;;;2.65;1.30;;;24.00;51.70;;;;;;5017206;28;20026;-78
2022/06/12 08:28:50;;;;;;;1.35;1.00;;;24.10;50.60;;;;;;5015673;28;20034;-78
2022/06/12 08:31:23;;;;;;;1.40;1.05;;;24.20;49.50;;;;;;5017239;28;20475;-78
2022/06/12 08:33:51;;;;;;;1.13;1.02;;;24.30;49.70;;;;;;5017091;28;20025;-79
2022/06/12 08:36:19;;;;;;;1.00;1.00;;;24.40;50.10;;;;;;4999717;28;20029;-78
2022/06/12 08:38:47;;;;;;;3.15;1.00;;;24.50;49.90;;;;;;5024532;28;20082;-78
2022/06/12 08:41:18;;;;;;;2.25;1.15;;;24.50;48.10;;;;;;5032196;28;20053;-78
2022/06/12 08:44:12;;;;;;;1.40;1.17;;;24.60;47.60;;;;;;5036989;28;20017;-78
2022/06/12 08:46:44;;;;;;;1.17;1.00;;;24.70;47.80;;;;;;4982747;28;20054;-78
2022/06/12 08:49:24;;;;;;;;;;;24.90;47.20;;;;;;5036743;28;20017;-79
2022/06/12 08:51:59;;;;;;;1.38;1.10;;;25.00;46.60;;;;;;5020295;28;20258;-80
2022/06/12 08:54:36;;;;;;;1.75;0.95;;;25.20;46.20;;;;;;5015586;28;20430;-77
2022/06/12 08:57:09;;;;;;;1.17;1.00;;;25.30;46.40;;;;;;5002550;28;20495;-78
2022/06/12 08:59:52;;;;;;;1.00;1.00;;;25.40;45.10;;;;;;5021792;28;20029;-79
2022/06/12 09:02:23;;;;;;;1.17;1.08;;;25.40;45.30;;;;;;5005678;28;20177;-77
2022/06/12 09:04:48;;;;;;;1.40;1.30;;;25.50;44.50;;;;;;5020875;28;20053;-78
2022/06/12 09:07:25;;;;;;;1.83;1.40;;;25.60;44.60;;;;;;5018617;28;20030;-78
2022/06/12 09:10:08;;;;;;;1.05;1.05;;;25.70;45.00;;;;;;5028596;28;20017;-78
2022/06/12 09:12:40;;;;;;;2.55;1.25;;;25.70;45.30;;;;;;5034181;28;20022;-77
2022/06/12 09:15:06;;;;;;;1.38;1.25;;;25.70;45.40;;;;;;5033595;28;20022;-78
2022/06/12 09:17:48;;;;;;;1.23;1.15;;;25.80;44.80;;;;;;5035781;28;20025;-78
2022/06/12 09:20:21;;;;;;;0.98;0.90;;;25.90;44.40;;;;;;5032968;28;20033;-77
2022/06/12 09:23:05;;;;;;;1.50;1.02;;;25.90;44.00;;;;;;5016925;28;20034;-77
2022/06/12 09:25:42;;;;;;;0.95;0.95;;;26.00;44.10;;;;;;5024548;28;20034;-77
2022/06/12 09:28:29;;;;;;;1.50;1.35;;;26.00;43.60;;;;;;5028413;28;20109;-77
2022/06/12 09:31:27;;;;;;;1.80;1.70;;;26.10;44.20;;;;;;5027167;28;20034;-77
2022/06/12 09:34:02;;;;;;;1.52;1.20;;;26.20;43.80;;;;;;4997388;28;20030;-79
2022/06/12 09:36:36;;;;;;;1.77;1.02;;;26.10;44.00;;;;;;5010253;28;20026;-77
2022/06/12 09:39:06;;;;;;;1.15;0.80;;;26.20;44.10;;;;;;5037353;28;20029;-78
2022/06/12 09:41:55;;;;;;;1.23;1.13;;;26.30;43.70;;;;;;5042647;28;20041;-78
2022/06/12 09:45:02;;;;;;;1.00;1.00;;;26.50;43.40;;;;;;5023057;28;20034;-78
2022/06/12 09:47:57;;;;;;;1.33;1.23;;;26.80;43.20;;;;;;5027214;28;20041;-79
2022/06/12 09:50:42;;;;;;;2.40;1.13;;;27.00;42.10;;;;;;5022415;28;20041;-79
2022/06/12 09:53:17;;;;;;;2.20;1.08;;;27.00;40.70;;;;;;5025131;28;20061;-78
2022/06/12 09:55:42;;;;;;;2.13;1.02;;;26.90;41.30;;;;;;5024283;28;20022;-77
2022/06/12 09:58:17;;;;;;;1.02;1.00;;;27.00;41.90;;;;;;5019772;28;20096;-79
2022/06/12 10:00:49;;;;;;;1.77;0.90;;;27.30;41.90;;;;;;5023451;28;20045;-79
2022/06/12 10:03:42;;;;;;;2.03;1.23;;;27.40;41.90;;;;;;5031335;28;20026;-78
2022/06/12 10:06:25;;;;;;;1.85;0.95;;;27.50;42.10;;;;;;4998634;28;20042;-78
2022/06/12 10:09:17;;;;;;;1.83;1.25;;;27.60;41.60;;;;;;5032239;28;20097;-78
2022/06/12 10:11:55;;;;;;;1.13;1.13;;;27.70;41.50;;;;;;5028092;28;20029;-79
2022/06/12 10:14:27;;;;;;;1.02;1.00;;;27.80;41.10;;;;;;5028491;28;20068;-78
2022/06/12 10:17:04;;;;;;;2.88;1.38;;;27.90;41.40;;;;;;5030671;28;20037;-77
2022/06/12 10:19:36;;;;;;;1.88;1.50;;;27.90;39.80;;;;;;5021321;28;20072;-78
2022/06/12 10:22:05;;;;;;;;;;;27.90;40.10;;;;;;5000054;28;20036;-77
2022/06/12 10:24:30;;;;;;;1.42;1.20;;;28.10;40.50;;;;;;5015974;28;19909;-78
2022/06/12 10:27:06;;;;;;;1.63;1.02;;;28.10;40.20;;;;;;5017129;28;20022;-81
2022/06/12 10:30:01;;;;;;;1.17;1.15;;;28.20;40.30;;;;;;5018156;28;20018;-77
2022/06/12 10:33:14;;;;;;;3.33;1.20;;;28.40;40.10;;;;;;4998777;28;20039;-79
2022/06/12 10:35:55;;;;;;;1.45;1.23;;;28.60;39.90;;;;;;4942246;29;20032;-80
2022/06/12 10:38:22;;;;;;;;;;;28.60;40.60;;;;;;5006651;28;20446;-79
2022/06/12 10:40:54;;;;;;;1.63;1.23;;;28.70;40.20;;;;;;5032215;28;19948;-80
2022/06/12 10:43:52;;;;;;;1.60;1.05;;;28.80;39.40;;;;;;5021427;28;20034;-78
2022/06/12 10:46:19;;;;;;;1.23;1.23;;;28.60;39.50;;;;;;5019918;28;20064;-78
2022/06/12 10:49:15;;;;;;;1.60;1.50;;;28.50;39.10;;;;;;5022899;28;20451;-80
2022/06/12 10:51:41;;;;;;;1.52;1.42;;;28.70;38.50;;;;;;5008362;28;20048;-79
2022/06/12 10:54:21;;;;;;;1.42;1.33;;;29.00;38.60;;;;;;5021396;28;20490;-79
2022/06/12 10:57:03;;;;;;;1.17;1.00;;;29.10;38.30;;;;;;5021104;28;20108;-80
2022/06/12 10:59:37;;;;;;;2.00;1.23;;;29.30;37.80;;;;;;5020988;28;20026;-79
2022/06/12 11:02:31;;;;;;;1.33;1.23;;;29.30;37.70;;;;;;5021220;28;20045;-79
2022/06/12 11:05:05;;;;;;;1.33;1.20;;;29.20;38.10;;;;;;5019977;28;20022;-79
2022/06/12 11:07:44;;;;;;;2.03;1.33;;;29.20;37.90;;;;;;5018969;28;20040;-79
2022/06/12 11:10:22;;;;;;;1.10;1.10;;;29.20;36.90;;;;;;5025045;28;20022;-78
2022/06/12 11:13:30;;;;;;;1.25;1.23;;;29.20;37.30;;;;;;5020354;28;20367;-81
2022/06/12 11:16:16;;;;;;;1.10;1.10;;;29.30;37.60;;;;;;5015396;28;20037;-80
2022/06/12 11:19:20;;;;;;;2.30;1.40;;;29.40;37.60;;;;;;5047398;28;20029;-78
2022/06/12 11:22:16;;;;;;;1.15;1.05;;;29.50;36.80;;;;;;5043336;28;20022;-80
2022/06/12 11:25:22;;;;;;;0.93;0.93;;;29.50;36.20;;;;;;5010967;28;20534;-80
2022/06/12 11:28:00;;;;;;;1.20;1.05;;;29.80;36.40;;;;;;5012006;28;20471;-79
2022/06/12 11:30:46;;;;;;;1.73;1.10;;;29.80;36.60;;;;;;5008248;28;20054;-77
2022/06/12 11:33:28;;;;;;;0.98;0.98;;;29.80;36.50;;;;;;5014979;28;20033;-79
2022/06/12 11:35:59;;;;;;;1.63;1.20;;;29.90;36.30;;;;;;5012534;28;20030;-79
2022/06/12 11:38:54;;;;;;;1.10;1.00;;;30.00;36.10;;;;;;4996852;28;20033;-79
2022/06/12 11:41:43;;;;;;;1.70;1.15;;;30.00;36.00;;;;;;5001118;28;20026;-78
2022/06/12 11:44:30;;;;;;;1.20;1.20;;;30.00;36.00;;;;;;5012197;28;20048;-79
2022/06/12 11:47:09;;;;;;;1.58;1.48;;;30.10;35.60;;;;;;5018219;28;20454;-79
2022/06/12 11:49:49;;;;;;;1.40;1.30;;;30.30;35.80;;;;;;5015411;28;20022;-77
2022/06/12 11:52:25;;;;;;;1.70;1.45;;;30.30;35.50;;;;;;5019313;28;20033;-78
2022/06/12 11:55:02;;;;;;;0.90;0.90;;;30.30;35.60;;;;;;5011520;28;20030;-78
2022/06/12 11:57:34;;;;;;;1.10;1.10;;;30.30;35.50;;;;;;5003672;28;20046;-79
2022/06/12 12:00:09;;;;;;;1.42;1.00;;;30.10;35.30;;;;;;5017831;28;20036;-78
2022/06/12 12:02:57;;;;;;;0.95;0.95;;;30.00;35.00;;;;;;5016354;28;20034;-78
2022/06/12 12:05:46;;;;;;;2.28;1.50;;;30.10;35.10;;;;;;5005588;28;20117;-79
2022/06/12 12:08:24;;;;;;;1.13;1.02;;;30.30;35.40;;;;;;5004774;28;20030;-77
2022/06/12 12:11:17;;;;;;;1.52;1.42;;;30.20;36.60;;;;;;5020077;28;20033;-80
2022/06/12 12:13:48;;;;;;;2.97;1.42;;;30.10;37.10;;;;;;5017108;28;20021;-81
2022/06/12 12:16:37;;;;;;;1.98;1.20;;;29.70;37.10;;;;;;5001293;28;20046;-77
2022/06/12 12:19:12;;;;;;;1.50;1.40;;;29.60;37.70;;;;;;4998094;28;20028;-79
2022/06/12 12:21:45;;;;;;;1.55;1.10;;;29.50;36.20;;;;;;5019647;28;20029;-78
2022/06/12 12:24:18;;;;;;;1.35;1.27;;;29.40;35.70;;;;;;5011032;28;20040;-77
2022/06/12 12:26:45;;;;;;;1.50;1.30;;;29.50;36.50;;;;;;5010803;28;20018;-80
2022/06/12 12:29:19;;;;;;;1.48;1.10;;;29.60;36.50;;;;;;5006714;28;20022;-79
2022/06/12 12:31:47;;;;;;;1.25;1.10;;;29.80;36.30;;;;;;5009495;28;20030;-80
2022/06/12 12:34:14;;;;;;;4.35;1.38;;;29.90;37.00;;;;;;5017104;28;20093;-80
2022/06/12 12:42:25;;;;;;;2.20;1.35;;;30.10;37.10;;;;;;5034546;28;20551;-76
2022/06/12 12:44:51;;;;;;;1.75;1.20;;;30.20;35.80;;;;;;5018170;28;20026;-78
2022/06/12 12:47:24;;;;;;;1.90;1.10;;;30.30;35.60;;;;;;5018195;28;20128;-79
2022/06/12 12:50:08;;;;;;;1.33;1.08;;;30.20;34.40;;;;;;5017252;28;20413;-79
2022/06/12 12:52:56;;;;;;;1.80;1.13;;;30.30;34.50;;;;;;5015669;28;20026;-79
2022/06/12 12:55:26;;;;;;;1.30;1.30;;;30.30;33.60;;;;;;5011770;28;20022;-80
2022/06/12 12:57:54;;;;;;;2.28;1.20;;;30.50;33.80;;;;;;5020200;28;20033;-80
2022/06/12 13:00:21;;;;;;;1.10;1.00;;;30.60;33.40;;;;;;5017047;28;20025;-79
2022/06/12 13:02:55;;;;;;;1.42;1.33;;;30.60;34.30;;;;;;5017511;28;20040;-79
2022/06/12 13:05:25;;;;;;;2.40;1.35;;;30.60;35.70;;;;;;5029168;22;20022;-84
2022/06/12 13:08:09;;;;;;;2.15;1.10;;;30.60;36.30;;;;;;5029310;28;20124;-84
2022/06/12 13:11:07;;;;;;;1.10;1.10;;;30.50;35.80;;;;;;5038658;28;20029;-83
2022/06/12 13:13:42;;;;;;;4.80;1.25;;;30.40;36.00;;;;;;5020985;28;20061;-84
2022/06/12 13:16:29;;;;;;;1.20;1.20;;;30.40;36.70;;;;;;5006357;28;20026;-84
2022/06/12 13:19:45;;;;;;;1.27;1.20;;;30.30;37.80;;;;;;5008043;28;20056;-84
2022/06/12 13:22:32;;;;;;;1.95;1.60;;;30.20;38.40;;;;;;5008580;28;20042;-84
2022/06/12 13:25:10;;;;;;;1.23;1.15;;;30.20;37.80;;;;;;5034177;28;20081;-84
2022/06/12 13:27:58;;;;;;;2.63;1.42;;;30.30;38.10;;;;;;5021714;28;20033;-85
2022/06/12 13:30:29;;;;;;;1.35;1.25;;;30.60;37.60;;;;;;5026225;28;20033;-85
2022/06/12 13:33:27;;;;;;;1.30;1.20;;;30.50;37.10;;;;;;5010861;28;20022;-84
2022/06/12 13:36:14;;;;;;;1.35;1.10;;;30.40;38.10;;;;;;5022846;28;20041;-87
2022/06/12 13:38:49;;;;;;;3.53;1.35;;;30.20;38.80;;;;;;5025058;28;20491;-85
2022/06/12 13:41:38;;;;;;;1.60;1.50;;;30.10;39.20;;;;;;5023059;28;20022;-85
2022/06/12 13:44:25;;;;;;;1.50;1.40;;;30.30;39.10;;;;;;5008827;28;20430;-85
2022/06/12 13:46:52;;;;;;;3.50;1.33;;;30.50;39.40;;;;;;5026550;28;20014;-84